createdAt,value
2023-04-04T00:01:49.620Z,11.33
2023-04-04T00:04:57.164Z,11.92
2023-04-04T00:08:03.291Z,11.68
2023-04-04T00:11:17.602Z,11.65
2023-04-04T00:14:25.441Z,12.13
2023-04-04T00:17:32.247Z,11.93
2023-04-04T00:20:39.013Z,12.20
2023-04-04T00:23:45.954Z,11.53
2023-04-04T00:26:54.578Z,11.35
2023-04-04T00:30:04.764Z,11.14
2023-04-04T00:33:10.947Z,11.39
2023-04-04T00:36:18.965Z,11.45
2023-04-04T00:39:26.782Z,11.42
2023-04-04T00:42:37.753Z,11.74
2023-04-04T00:45:44.694Z,11.73
2023-04-04T00:48:54.541Z,11.81
2023-04-04T00:52:00.549Z,11.82
2023-04-04T00:55:20.898Z,11.56
2023-04-04T00:58:30.580Z,10.88
2023-04-04T01:01:38.944Z,10.85
2023-04-04T01:04:51.963Z,11.10
2023-04-04T01:07:59.171Z,10.73
2023-04-04T01:11:05.727Z,10.72
2023-04-04T01:14:15.964Z,11.05
2023-04-04T01:17:23.124Z,11.06
2023-04-04T01:20:37.276Z,11.14
2023-04-04T01:24:05.185Z,11.12
2023-04-04T01:27:30.079Z,11.13
2023-04-04T01:30:49.191Z,10.98
2023-04-04T01:34:08.141Z,11.74
2023-04-04T01:37:33.386Z,11.71
2023-04-04T01:40:47.837Z,11.68
2023-04-04T01:43:57.598Z,11.52
2023-04-04T01:47:08.955Z,10.59
2023-04-04T01:50:15.773Z,11.15
2023-04-04T01:53:23.402Z,11.42
2023-04-04T01:56:29.475Z,11.01
2023-04-04T01:59:41.555Z,11.37
2023-04-04T02:02:47.890Z,11.27
2023-04-04T02:05:56.402Z,11.46
2023-04-04T02:09:02.933Z,12.07
2023-04-04T02:12:12.195Z,11.49
2023-04-04T02:15:24.227Z,11.73
2023-04-04T02:18:37.355Z,11.85
2023-04-04T02:21:57.774Z,12.07
2023-04-04T02:25:12.987Z,13.04
2023-04-04T02:28:18.940Z,13.17
2023-04-04T02:31:32.600Z,13.21
2023-04-04T02:34:39.037Z,12.93
2023-04-04T02:37:49.841Z,13.27
2023-04-04T02:41:05.393Z,12.74
2023-04-04T02:44:12.903Z,13.50
2023-04-04T02:47:24.440Z,13.13
2023-04-04T02:50:31.290Z,12.68
2023-04-04T02:53:40.098Z,12.55
2023-04-04T02:57:01.747Z,12.45
2023-04-04T03:00:10.191Z,11.63
2023-04-04T03:03:20.635Z,11.66
2023-04-04T03:06:37.983Z,11.58
2023-04-04T03:09:47.731Z,12.36
2023-04-04T03:12:53.890Z,12.08
2023-04-04T03:16:10.559Z,12.19
2023-04-04T03:19:28.298Z,11.81
2023-04-04T03:22:36.389Z,11.28
2023-04-04T03:25:42.585Z,11.05
2023-04-04T03:28:49.571Z,10.69
2023-04-04T03:32:18.481Z,10.60
2023-04-04T03:35:28.351Z,11.67
2023-04-04T03:38:34.544Z,11.54
2023-04-04T03:41:50.178Z,11.08
2023-04-04T03:44:56.513Z,11.36
2023-04-04T03:48:14.093Z,11.41
2023-04-04T03:51:27.713Z,10.78
2023-04-04T03:54:42.202Z,11.53
2023-04-04T03:57:49.566Z,11.92
2023-04-04T04:00:57.551Z,11.90
2023-04-04T04:04:08.453Z,11.29
2023-04-04T04:07:19.514Z,11.65
2023-04-04T04:10:25.819Z,11.66
2023-04-04T04:13:32.893Z,12.41
2023-04-04T04:16:43.451Z,14.29
2023-04-04T04:19:54.238Z,14.72
2023-04-04T04:23:04.393Z,16.50
2023-04-04T04:26:11.284Z,17.09
2023-04-04T04:29:17.418Z,18.84
2023-04-04T04:32:33.923Z,19.43
2023-04-04T04:35:41.317Z,18.69
2023-04-04T04:38:56.289Z,17.51
2023-04-04T04:42:06.086Z,16.23
2023-04-04T04:45:16.507Z,16.15
2023-04-04T04:48:27.453Z,17.05
2023-04-04T04:51:37.793Z,17.72
2023-04-04T04:54:56.285Z,16.29
2023-04-04T04:58:04.706Z,17.03
2023-04-04T05:01:11.662Z,16.37
2023-04-04T05:04:22.773Z,14.97
2023-04-04T05:07:51.768Z,16.00
2023-04-04T05:11:02.697Z,15.66
2023-04-04T05:14:11.765Z,14.92
2023-04-04T05:17:37.190Z,13.97
2023-04-04T05:20:46.804Z,13.52
2023-04-04T05:23:54.196Z,13.13
2023-04-04T05:27:07.888Z,12.91
2023-04-04T05:30:21.135Z,12.28
2023-04-04T05:33:40.292Z,11.47
2023-04-04T05:36:56.738Z,11.48
2023-04-04T05:40:03.302Z,10.97
2023-04-04T05:43:12.936Z,10.69
2023-04-04T05:46:33.187Z,10.39
2023-04-04T05:49:40.092Z,11.45
2023-04-04T05:52:46.299Z,10.62
2023-04-04T05:55:56.021Z,10.31
2023-04-04T05:59:22.343Z,11.35
2023-04-04T06:02:46.663Z,9.99
2023-04-04T06:05:57.453Z,9.52
2023-04-04T06:09:05.805Z,9.02
2023-04-04T06:12:14.355Z,9.00
2023-04-04T06:15:24.846Z,9.31
2023-04-04T06:18:31.746Z,8.99
2023-04-04T06:21:39.157Z,9.00
2023-04-04T06:24:45.392Z,9.60
2023-04-04T06:27:54.427Z,9.79
2023-04-04T06:31:03.230Z,8.73
2023-04-04T06:34:15.289Z,8.11
2023-04-04T06:37:35.796Z,8.01
2023-04-04T06:40:50.753Z,8.37
2023-04-04T06:44:03.215Z,8.55
2023-04-04T06:47:29.224Z,8.21
2023-04-04T06:50:35.474Z,8.67
2023-04-04T06:53:45.068Z,7.58
2023-04-04T06:56:52.045Z,7.47
2023-04-04T07:00:11.506Z,7.18
2023-04-04T07:03:27.232Z,7.30
2023-04-04T07:06:34.112Z,7.02
2023-04-04T07:09:40.201Z,7.49
2023-04-04T07:12:47.051Z,7.25
2023-04-04T07:15:59.315Z,7.37
2023-04-04T07:19:08.855Z,7.39
2023-04-04T07:22:21.837Z,6.97
2023-04-04T07:25:31.922Z,6.14
2023-04-04T07:28:37.901Z,6.49
2023-04-04T07:31:45.091Z,6.62
2023-04-04T07:34:53.961Z,6.10
2023-04-04T07:38:07.215Z,6.04
2023-04-04T07:41:16.602Z,6.29
2023-04-04T07:44:23.582Z,6.40
2023-04-04T07:47:29.633Z,7.51
2023-04-04T07:50:39.208Z,7.52
2023-04-04T07:53:45.267Z,6.38
2023-04-04T07:56:51.992Z,6.92
2023-04-04T07:59:58.057Z,6.09
2023-04-04T08:03:05.012Z,6.05
2023-04-04T08:06:13.761Z,5.97
2023-04-04T08:09:20.586Z,6.84
2023-04-04T08:12:26.644Z,5.44
2023-04-04T08:15:33.326Z,5.42
2023-04-04T08:18:40.975Z,5.26
2023-04-04T08:21:50.408Z,5.67
2023-04-04T08:24:59.036Z,6.09
2023-04-04T08:28:07.248Z,4.81
2023-04-04T08:31:13.520Z,5.67
2023-04-04T08:34:21.077Z,6.05
2023-04-04T08:37:31.450Z,5.15
2023-04-04T08:40:38.896Z,5.05
2023-04-04T08:43:54.774Z,7.26
2023-04-04T08:47:05.778Z,5.42
2023-04-04T08:50:12.345Z,4.65
2023-04-04T08:53:23.516Z,4.52
2023-04-04T08:56:30.126Z,5.21
2023-04-04T08:59:37.445Z,5.04
2023-04-04T09:02:58.330Z,4.37
2023-04-04T09:06:07.689Z,5.41
2023-04-04T09:09:18.883Z,5.30
2023-04-04T09:12:27.876Z,6.41
2023-04-04T09:15:38.717Z,8.58
2023-04-04T09:18:45.535Z,5.51
2023-04-04T09:21:52.238Z,5.67
2023-04-04T09:25:01.810Z,5.67
2023-04-04T09:28:08.700Z,5.93
2023-04-04T09:31:17.643Z,6.25
2023-04-04T09:34:24.314Z,8.05
2023-04-04T09:37:31.473Z,9.30
2023-04-04T09:40:44.246Z,6.18
2023-04-04T09:43:51.554Z,5.30
2023-04-04T09:47:30.955Z,12.23
2023-04-04T09:50:41.757Z,5.15
2023-04-04T09:53:52.224Z,8.29
2023-04-04T09:57:02.087Z,5.05
2023-04-04T10:00:11.585Z,6.54
2023-04-04T10:03:21.244Z,10.22
2023-04-04T10:06:27.556Z,4.88
2023-04-04T10:09:34.542Z,10.80
2023-04-04T10:12:43.170Z,12.23
2023-04-04T10:15:51.098Z,5.46
2023-04-04T10:18:57.619Z,5.19
2023-04-04T10:22:08.199Z,4.86
2023-04-04T10:25:14.533Z,5.11
2023-04-04T10:28:25.115Z,5.05
2023-04-04T10:31:37.608Z,5.92
2023-04-04T10:34:56.972Z,8.48
2023-04-04T10:38:08.675Z,8.03
2023-04-04T10:41:18.003Z,5.96
2023-04-04T10:44:34.229Z,5.53
2023-04-04T10:47:43.412Z,6.84
2023-04-04T10:50:52.069Z,6.07
2023-04-04T10:53:59.651Z,5.59
2023-04-04T10:57:06.200Z,9.39
2023-04-04T11:00:19.744Z,6.64
2023-04-04T11:03:26.422Z,10.46
2023-04-04T11:07:17.650Z,7.95
2023-04-04T11:10:28.608Z,12.84
2023-04-04T11:13:40.211Z,10.27
2023-04-04T11:16:55.796Z,10.25
2023-04-04T11:20:06.960Z,12.37
2023-04-04T11:23:23.223Z,14.64
2023-04-04T11:26:39.928Z,7.84
2023-04-04T11:29:56.077Z,11.57
2023-04-04T11:33:08.178Z,6.26
2023-04-04T11:36:47.759Z,6.75
2023-04-04T11:39:59.336Z,6.35
2023-04-04T11:43:11.154Z,6.63
2023-04-04T11:46:21.517Z,8.04
2023-04-04T11:49:38.481Z,10.47
2023-04-04T11:52:46.563Z,15.00
2023-04-04T11:55:55.063Z,9.26
2023-04-04T11:59:11.026Z,7.08
2023-04-04T12:02:23.832Z,7.09
2023-04-04T12:05:34.410Z,9.38
2023-04-04T12:08:40.845Z,7.54
2023-04-04T12:11:48.624Z,8.19
2023-04-04T12:15:06.762Z,8.47
2023-04-04T12:18:26.836Z,6.35
2023-04-04T12:21:37.484Z,6.71
2023-04-04T12:24:44.464Z,6.93
2023-04-04T12:27:52.973Z,7.71
2023-04-04T12:31:05.586Z,8.92
2023-04-04T12:34:19.949Z,9.63
2023-04-04T12:37:33.500Z,9.98
2023-04-04T12:40:42.183Z,8.57
2023-04-04T12:43:50.338Z,10.33
2023-04-04T12:47:00.947Z,12.91
2023-04-04T12:50:12.186Z,7.90
2023-04-04T12:56:35.839Z,8.79
2023-04-04T12:59:42.537Z,9.09
2023-04-04T13:02:53.501Z,12.41
2023-04-04T13:06:01.634Z,13.37
2023-04-04T13:09:21.169Z,10.48
2023-04-04T13:12:27.563Z,9.29
2023-04-04T13:15:54.787Z,14.94
2023-04-04T13:19:01.228Z,11.90
2023-04-04T13:22:12.602Z,16.26
2023-04-04T13:25:21.584Z,10.15
2023-04-04T13:28:28.609Z,8.06
2023-04-04T13:31:34.769Z,8.60
2023-04-04T13:34:41.742Z,6.63
2023-04-04T13:37:47.803Z,6.66
2023-04-04T13:40:57.659Z,6.61
2023-04-04T13:44:03.915Z,7.22
2023-04-04T13:47:10.828Z,8.24
2023-04-04T13:50:17.160Z,8.79
2023-04-04T13:53:24.263Z,8.85
2023-04-04T13:56:32.979Z,8.38
2023-04-04T13:59:39.871Z,8.21
2023-04-04T14:02:47.004Z,8.99
2023-04-04T14:05:54.045Z,9.76
2023-04-04T14:09:00.051Z,6.95
2023-04-04T14:12:10.088Z,6.35
2023-04-04T14:15:16.230Z,7.73
2023-04-04T14:18:23.157Z,7.37
2023-04-04T14:21:29.201Z,6.55
2023-04-04T14:24:35.998Z,6.41
2023-04-04T14:27:46.497Z,9.63
2023-04-04T14:30:54.165Z,11.39
2023-04-04T14:34:00.505Z,8.17
2023-04-04T14:37:07.796Z,8.20
2023-04-04T14:40:14.530Z,7.83
2023-04-04T14:43:26.246Z,8.92
2023-04-04T14:46:34.268Z,10.09
2023-04-04T14:49:41.053Z,8.65
2023-04-04T14:52:48.101Z,6.85
2023-04-04T14:55:55.637Z,9.84
2023-04-04T14:59:06.059Z,8.68
2023-04-04T15:02:12.854Z,8.58
2023-04-04T15:05:19.493Z,7.74
2023-04-04T15:08:26.759Z,9.92
2023-04-04T15:11:33.396Z,9.21
2023-04-04T15:14:43.112Z,8.63
2023-04-04T15:17:51.179Z,12.30
2023-04-04T15:21:00.372Z,11.15
2023-04-04T15:24:06.495Z,9.77
2023-04-04T15:27:15.574Z,8.84
2023-04-04T15:30:29.566Z,7.83
2023-04-04T15:33:39.349Z,8.39
2023-04-04T15:36:45.451Z,7.81
2023-04-04T15:39:55.048Z,7.77
2023-04-04T15:43:01.573Z,8.34
2023-04-04T15:46:14.371Z,10.16
2023-04-04T15:49:20.417Z,9.97
2023-04-04T15:52:27.450Z,10.58
2023-04-04T15:55:33.472Z,13.02
2023-04-04T15:58:40.219Z,10.90
2023-04-04T16:01:49.222Z,8.23
2023-04-04T16:04:56.225Z,8.50
2023-04-04T16:08:03.412Z,8.05
2023-04-04T16:11:10.195Z,9.30
2023-04-04T16:14:16.339Z,9.67
2023-04-04T16:17:26.434Z,10.54
2023-04-04T16:20:33.246Z,9.69
2023-04-04T16:23:40.118Z,9.97
2023-04-04T16:26:47.737Z,9.02
2023-04-04T16:29:54.553Z,12.40
2023-04-04T16:33:10.453Z,14.04
2023-04-04T16:36:17.512Z,16.13
2023-04-04T16:39:23.483Z,12.38
2023-04-04T16:42:30.449Z,11.82
2023-04-04T16:45:36.499Z,10.02
2023-04-04T16:48:46.314Z,12.56
2023-04-04T16:51:52.312Z,10.44
2023-04-04T16:54:59.192Z,13.40
2023-04-04T16:58:05.366Z,14.41
2023-04-04T17:01:15.404Z,13.11
2023-04-04T17:04:24.008Z,18.81
2023-04-04T17:07:31.119Z,16.39
2023-04-04T17:10:40.818Z,17.67
2023-04-04T17:13:47.988Z,14.36
2023-04-04T17:16:54.577Z,17.18
2023-04-04T17:20:08.642Z,20.43
2023-04-04T17:23:17.425Z,19.50
2023-04-04T17:26:40.068Z,16.95
2023-04-04T17:29:46.414Z,19.82
2023-04-04T17:32:55.683Z,17.39
2023-04-04T17:36:06.586Z,15.05
2023-04-04T17:39:15.773Z,16.65
2023-04-04T17:42:21.778Z,16.89
2023-04-04T17:45:39.382Z,15.19
2023-04-04T17:48:49.971Z,18.25
2023-04-04T17:52:21.456Z,19.98
2023-04-04T17:55:42.201Z,18.53
2023-04-04T17:58:49.990Z,16.27
2023-04-04T18:01:57.326Z,13.48
2023-04-04T18:05:04.457Z,12.92
2023-04-04T18:08:14.236Z,16.96
2023-04-04T18:11:21.256Z,14.73
2023-04-04T18:14:30.231Z,14.56
2023-04-04T18:17:37.203Z,13.16
2023-04-04T18:20:43.609Z,15.10
2023-04-04T18:23:53.365Z,17.51
2023-04-04T18:26:59.971Z,16.43
2023-04-04T18:30:07.839Z,14.41
2023-04-04T18:33:15.277Z,14.46
2023-04-04T18:36:22.271Z,14.81
2023-04-04T18:39:31.337Z,16.54
2023-04-04T18:42:38.980Z,16.73
2023-04-04T18:45:47.119Z,18.97
2023-04-04T18:48:54.286Z,19.68
2023-04-04T18:52:01.218Z,21.90
2023-04-04T18:55:12.721Z,23.67
2023-04-04T18:58:18.810Z,24.50
2023-04-04T19:01:26.028Z,24.43
2023-04-04T19:04:38.788Z,25.26
2023-04-04T19:07:49.732Z,24.55
2023-04-04T19:11:03.571Z,24.21
2023-04-04T19:14:10.547Z,23.11
2023-04-04T19:17:18.522Z,23.30
2023-04-04T19:20:35.064Z,20.72
2023-04-04T19:23:41.474Z,20.64
2023-04-04T19:26:59.367Z,25.85
2023-04-04T19:30:14.640Z,31.82
2023-04-04T19:33:26.103Z,32.20
2023-04-04T19:36:40.867Z,34.09
2023-04-04T19:39:53.789Z,38.53
2023-04-04T19:43:04.342Z,38.30
2023-04-04T19:46:14.434Z,38.13
2023-04-04T19:49:21.086Z,42.90
2023-04-04T19:52:41.455Z,45.18
2023-04-04T19:55:47.738Z,45.26
2023-04-04T19:59:08.095Z,44.36
2023-04-04T20:02:58.286Z,43.77
2023-04-04T20:06:12.661Z,42.86
2023-04-04T20:09:40.341Z,44.57
2023-04-04T20:12:56.674Z,42.24
2023-04-04T20:16:12.356Z,43.46
2023-04-04T20:19:32.615Z,44.11
2023-04-04T20:22:38.871Z,44.59
2023-04-04T20:25:47.399Z,48.64
2023-04-04T20:28:53.433Z,54.68
2023-04-04T20:32:05.714Z,60.27
2023-04-04T20:35:29.286Z,65.60
2023-04-04T20:38:36.627Z,71.31
2023-04-04T20:41:45.783Z,74.05
2023-04-04T20:44:52.729Z,72.90
2023-04-04T20:48:06.789Z,71.83
2023-04-04T20:51:30.182Z,70.24
2023-04-04T20:54:39.672Z,69.63
2023-04-04T20:57:48.543Z,70.03
2023-04-04T21:00:54.752Z,69.50
2023-04-04T21:04:04.275Z,72.50
2023-04-04T21:07:10.447Z,78.99
2023-04-04T21:10:27.636Z,77.33
2023-04-04T21:13:39.402Z,70.44
2023-04-04T21:16:46.301Z,67.98
2023-04-04T21:20:07.442Z,67.58
2023-04-04T21:23:36.361Z,66.72
2023-04-04T21:26:51.448Z,62.94
2023-04-04T21:29:58.440Z,65.83
2023-04-04T21:33:04.646Z,64.60
2023-04-04T21:36:27.749Z,64.67
2023-04-04T21:39:35.350Z,65.90
2023-04-04T21:42:42.163Z,67.23
2023-04-04T21:45:48.482Z,67.97
2023-04-04T21:48:56.283Z,70.26
2023-04-04T21:52:05.024Z,70.72
2023-04-04T21:55:15.321Z,73.15
2023-04-04T21:58:23.605Z,74.77
2023-04-04T22:01:31.286Z,78.94
2023-04-04T22:04:37.442Z,78.50
2023-04-04T22:07:47.218Z,80.35
2023-04-04T22:10:53.281Z,92.88
2023-04-04T22:14:07.846Z,87.80
2023-04-04T22:17:23.153Z,81.80
2023-04-04T22:20:29.958Z,83.35
2023-04-04T22:23:40.600Z,86.20
2023-04-04T22:26:47.693Z,87.85
2023-04-04T22:29:53.671Z,89.82
2023-04-04T22:33:03.783Z,89.09
2023-04-04T22:36:11.303Z,87.48
2023-04-04T22:39:20.952Z,85.62
2023-04-04T22:42:27.218Z,87.39
2023-04-04T22:45:34.790Z,89.26
2023-04-04T22:48:41.637Z,88.40
2023-04-04T22:51:48.535Z,87.06
2023-04-04T22:54:57.161Z,85.99
2023-04-04T22:58:04.987Z,83.43
2023-04-04T23:01:11.200Z,84.99
2023-04-04T23:04:18.203Z,86.21
2023-04-04T23:07:24.243Z,88.99
2023-04-04T23:10:34.676Z,109.02
2023-04-04T23:13:42.627Z,110.30
2023-04-04T23:16:53.065Z,108.75
2023-04-04T23:19:59.411Z,107.33
2023-04-04T23:23:06.312Z,104.00
2023-04-04T23:26:14.921Z,107.55
2023-04-04T23:29:21.757Z,108.94
2023-04-04T23:32:27.793Z,107.76
2023-04-04T23:35:34.730Z,107.74
2023-04-04T23:38:43.562Z,107.29
2023-04-04T23:41:52.960Z,109.36
2023-04-04T23:45:03.790Z,112.78
2023-04-04T23:48:11.139Z,105.43
2023-04-04T23:51:17.823Z,91.39
2023-04-04T23:54:24.582Z,82.95
2023-04-04T23:57:39.471Z,80.49
